Time;durP1;ratioP1;P1;durP2;ratioP2;P2;SDS_P1;SDS_P2;PMS_P1;PMS_P2;Temp;Humidity;BMP_temperature;BMP_pressure;BME280_temperature;BME280_humidity;BME280_pressure;Samples;Min_cycle;Max_cycle;Signal;HPM_P1;HPM_P2
2021/03/21 00:02:19;;;;;;;0.20;0.10;;;;;;;5.41;71.37;101042.91;5004253;28;20449;-56
2021/03/21 00:04:45;;;;;;;0.30;0.20;;;;;;;5.50;71.49;101042.94;5014447;28;20456;-56
2021/03/21 00:07:11;;;;;;;0.30;0.20;;;;;;;5.46;73.14;101042.03;5014882;28;20976;-56
2021/03/21 00:09:37;;;;;;;0.30;0.20;;;;;;;5.34;75.30;101034.06;5014264;28;20869;-56
2021/03/21 00:12:04;;;;;;;0.30;0.20;;;;;;;5.30;73.92;101025.28;5014913;28;20510;-56
2021/03/21 00:14:31;;;;;;;0.20;0.10;;;;;;;5.33;75.61;101024.41;5014684;28;20530;-56
2021/03/21 00:16:59;;;;;;;0.30;0.20;;;;;;;5.40;75.53;101020.06;5014730;28;20503;-56
2021/03/21 00:19:26;;;;;;;0.30;0.20;;;;;;;5.27;75.02;101011.22;5005995;28;20530;-56
2021/03/21 00:21:52;;;;;;;0.20;0.20;;;;;;;5.32;75.76;101007.72;5014150;28;20859;-56
2021/03/21 00:24:18;;;;;;;0.20;0.10;;;;;;;5.29;74.76;101006.81;5007536;28;20457;-56
2021/03/21 00:26:49;;;;;;;0.20;0.10;;;;;;;5.24;76.59;101005.94;4999110;28;20460;-56
2021/03/21 00:29:15;;;;;;;0.20;0.10;;;;;;;5.19;77.65;101003.25;5006888;28;20489;-56
2021/03/21 00:31:41;;;;;;;0.30;0.10;;;;;;;5.21;76.52;101011.19;4994850;28;20473;-56
2021/03/21 00:34:08;;;;;;;0.20;0.20;;;;;;;5.24;77.26;101008.56;5007771;28;20956;-56
2021/03/21 00:36:34;;;;;;;0.20;0.20;;;;;;;5.03;77.75;101006.69;4995146;28;20456;-56
2021/03/21 00:39:00;;;;;;;0.30;0.20;;;;;;;5.10;75.62;101002.34;5008151;28;20914;-57
2021/03/21 00:41:28;;;;;;;1.17;1.17;;;;;;;5.21;76.38;101012.06;4995293;28;20473;-56
2021/03/21 00:43:55;;;;;;;0.20;0.10;;;;;;;5.21;74.82;101006.81;5007976;28;20489;-56
2021/03/21 00:46:23;;;;;;;0.20;0.10;;;;;;;5.21;74.75;100991.00;5003354;28;20457;-56
2021/03/21 00:48:49;;;;;;;0.20;0.13;;;;;;;5.22;75.65;100987.47;5008898;28;20525;-56
2021/03/21 00:51:16;;;;;;;0.30;0.20;;;;;;;5.14;76.27;100983.03;4994970;28;20477;-56
2021/03/21 00:53:43;;;;;;;0.27;0.13;;;;;;;5.15;76.02;100971.63;5007602;28;20855;-56
2021/03/21 00:56:26;;;;;;;0.20;0.10;;;;;;;5.13;76.04;100968.09;4995265;28;20497;-56
2021/03/21 00:58:52;;;;;;;0.20;0.20;;;;;;;5.11;76.58;100959.31;5002535;28;20914;-55
2021/03/21 01:01:18;;;;;;;0.20;0.20;;;;;;;5.08;75.58;100959.31;4999942;28;20489;-55
2021/03/21 01:03:46;;;;;;;0.23;0.20;;;;;;;5.13;75.46;100961.06;5003040;28;20630;-55
2021/03/21 01:06:12;;;;;;;0.20;0.13;;;;;;;5.17;75.36;100954.94;4998957;28;20453;-56
2021/03/21 01:08:39;;;;;;;0.30;0.10;;;;;;;5.09;75.16;100954.03;5002122;28;20875;-56
2021/03/21 01:11:15;;;;;;;0.20;0.10;;;;;;;5.17;75.21;100954.06;4998561;28;20477;-55
2021/03/21 01:13:42;;;;;;;0.20;0.10;;;;;;;5.09;74.92;100955.78;5003855;28;20968;-55
2021/03/21 01:16:20;;;;;;;0.20;0.20;;;;;;;5.06;75.64;100954.88;5003797;28;21198;-55
2021/03/21 01:18:49;;;;;;;0.20;0.10;;;;;;;5.15;75.94;100946.16;5001948;28;20470;-56
2021/03/21 01:21:16;;;;;;;0.20;0.20;;;;;;;5.01;76.34;100938.19;5021024;28;20473;-56
2021/03/21 01:23:43;;;;;;;0.20;0.20;;;;;;;4.90;77.52;100923.19;5006197;28;20456;-55
2021/03/21 01:26:15;;;;;;;0.20;0.10;;;;;;;5.02;77.51;100923.25;4999894;28;20465;-56
2021/03/21 01:28:42;;;;;;;0.20;0.20;;;;;;;4.93;77.88;100923.22;5007016;28;20488;-56
2021/03/21 01:31:12;;;;;;;0.70;0.70;;;;;;;4.82;76.84;100925.81;4994658;28;20480;-55
2021/03/21 01:33:38;;;;;;;0.20;0.10;;;;;;;4.86;77.03;100927.56;5008101;28;20441;-55
2021/03/21 01:36:27;;;;;;;0.30;0.20;;;;;;;5.11;77.50;100922.44;5007762;28;20462;-55
2021/03/21 01:38:55;;;;;;;0.20;0.10;;;;;;;5.02;77.77;100926.78;4996661;28;20449;-55
2021/03/21 01:41:30;;;;;;;0.20;0.17;;;;;;;5.00;77.63;100917.97;5003352;28;20544;-55
2021/03/21 01:43:56;;;;;;;0.20;0.10;;;;;;;5.06;76.81;100919.75;4998246;28;20447;-55
2021/03/21 01:46:35;;;;;;;0.20;0.10;;;;;;;5.00;77.76;100909.19;5011219;28;20457;-56
2021/03/21 01:49:08;;;;;;;0.20;0.10;;;;;;;5.01;77.64;100918.88;5007497;28;20497;-55
2021/03/21 01:51:39;;;;;;;0.30;0.20;;;;;;;4.97;78.77;100919.72;4994183;28;20523;-55
2021/03/21 01:54:12;;;;;;;0.30;0.10;;;;;;;4.93;79.47;100916.19;5005685;28;20946;-56
2021/03/21 01:56:40;;;;;;;0.23;0.10;;;;;;;4.98;79.52;100906.56;4996120;28;20899;-56
2021/03/21 01:59:15;;;;;;;0.53;0.53;;;;;;;4.93;79.92;100897.75;5004493;28;20982;-56
2021/03/21 02:01:42;;;;;;;0.20;0.10;;;;;;;4.98;80.70;100901.28;4997225;28;20483;-56
2021/03/21 02:04:10;;;;;;;0.20;0.20;;;;;;;5.08;81.31;100898.72;5003052;28;20457;-56
2021/03/21 02:06:36;;;;;;;0.20;0.10;;;;;;;5.07;81.20;100895.16;4997316;28;20455;-56
2021/03/21 02:09:21;;;;;;;0.20;0.10;;;;;;;4.89;81.59;100895.97;5003119;28;20998;-56
2021/03/21 02:12:05;;;;;;;0.20;0.10;;;;;;;4.84;81.63;100892.47;5003955;28;20973;-55
2021/03/21 02:14:57;;;;;;;0.20;0.13;;;;;;;4.95;80.63;100889.88;5001679;28;20454;-55
2021/03/21 02:17:45;;;;;;;0.23;0.13;;;;;;;4.93;81.50;100891.59;5013914;28;20449;-55
2021/03/21 02:20:26;;;;;;;0.20;0.10;;;;;;;4.86;80.36;100889.81;5016691;28;20496;-56
2021/03/21 02:22:57;;;;;;;0.20;0.20;;;;;;;4.96;80.54;100891.63;5005568;28;20886;-55
2021/03/21 02:25:45;;;;;;;0.20;0.10;;;;;;;4.98;81.25;100900.41;5007324;28;20464;-55
2021/03/21 02:28:38;;;;;;;0.20;0.10;;;;;;;4.91;80.13;100891.59;5006719;28;20455;-56
2021/03/21 02:31:15;;;;;;;0.20;0.10;;;;;;;4.89;80.71;100903.88;4998379;28;20472;-55
2021/03/21 02:34:04;;;;;;;0.20;0.20;;;;;;;4.91;81.27;100904.75;5009817;28;20548;-55
2021/03/21 02:36:44;;;;;;;0.20;0.13;;;;;;;4.88;82.22;100902.13;4997304;28;20931;-56
2021/03/21 02:39:17;;;;;;;0.20;0.10;;;;;;;4.90;80.67;100897.75;5010665;28;20441;-56
2021/03/21 02:41:49;;;;;;;0.20;0.20;;;;;;;4.92;81.98;100885.44;4997011;28;20989;-56
2021/03/21 02:44:22;;;;;;;0.20;0.10;;;;;;;4.88;83.29;100888.06;5004000;28;20508;-56
2021/03/21 02:46:55;;;;;;;0.20;0.10;;;;;;;4.86;84.69;100885.44;5014398;28;20448;-56
2021/03/21 02:49:42;;;;;;;0.20;0.10;;;;;;;4.80;83.94;100880.16;5008595;28;20477;-55
2021/03/21 02:52:15;;;;;;;0.30;0.20;;;;;;;4.83;83.51;100882.81;5002323;28;21007;-56
2021/03/21 02:54:49;;;;;;;0.20;0.10;;;;;;;4.93;83.57;100863.50;5003901;28;20449;-56
2021/03/21 02:57:22;;;;;;;0.20;0.10;;;;;;;4.87;86.22;100868.75;4996802;28;20445;-56
2021/03/21 02:59:52;;;;;;;0.20;0.17;;;;;;;4.83;86.35;100860.84;5009730;28;20945;-56
2021/03/21 03:02:27;;;;;;;0.30;0.10;;;;;;;4.78;84.94;100858.19;4996961;28;20516;-55
2021/03/21 03:05:00;;;;;;;0.20;0.10;;;;;;;4.90;83.38;100855.59;5009401;28;20449;-56
2021/03/21 03:07:37;;;;;;;0.20;0.10;;;;;;;4.87;83.04;100842.41;4996912;28;20468;-56
2021/03/21 03:10:24;;;;;;;0.20;0.10;;;;;;;4.99;78.92;100838.94;5009097;28;20497;-56
2021/03/21 03:13:03;;;;;;;0.20;0.17;;;;;;;5.11;76.20;100830.22;4998655;28;20496;-56
2021/03/21 03:15:29;;;;;;;0.20;0.10;;;;;;;5.16;74.92;100821.41;5006904;28;20453;-56
2021/03/21 03:18:33;;;;;;;0.20;0.20;;;;;;;5.29;73.78;100809.16;5011996;28;20542;-56
2021/03/21 03:21:41;;;;;;;0.20;0.10;;;;;;;5.28;72.60;100804.75;5022389;28;20897;-56
2021/03/21 03:24:07;;;;;;;0.20;0.10;;;;;;;5.41;72.93;100800.38;5009690;28;20452;-56
2021/03/21 03:27:17;;;;;;;0.30;0.20;;;;;;;5.45;70.69;100795.09;4999327;28;20829;-56
2021/03/21 03:30:00;;;;;;;0.20;0.10;;;;;;;5.42;71.27;100776.66;4996892;28;20488;-56
2021/03/21 03:32:27;;;;;;;0.20;0.10;;;;;;;5.45;71.61;100786.31;4998758;28;20453;-56
2021/03/21 03:34:57;;;;;;;0.20;0.10;;;;;;;5.47;71.61;100781.91;5005986;28;20950;-56
2021/03/21 03:37:27;;;;;;;0.20;0.10;;;;;;;5.73;71.03;100790.69;4998187;28;20503;-56
2021/03/21 03:39:54;;;;;;;0.30;0.20;;;;;;;5.60;70.94;100794.22;5006990;28;20448;-56
2021/03/21 03:42:42;;;;;;;0.20;0.20;;;;;;;5.57;71.22;100800.38;4996941;28;20453;-56
2021/03/21 03:45:18;;;;;;;0.30;0.30;;;;;;;5.58;73.76;100801.25;5008327;28;20456;-56
2021/03/21 03:48:00;;;;;;;0.20;0.20;;;;;;;5.54;75.68;100799.50;5015104;28;20460;-56
2021/03/21 03:50:35;;;;;;;0.20;0.10;;;;;;;5.46;75.90;100802.13;4997113;28;20511;-56
2021/03/21 03:53:04;;;;;;;0.20;0.10;;;;;;;5.51;76.07;100805.66;5008738;28;20452;-56
2021/03/21 03:55:59;;;;;;;0.20;0.10;;;;;;;5.48;75.88;100805.66;5002138;28;20453;-56
2021/03/21 03:58:48;;;;;;;0.20;0.10;;;;;;;5.38;76.11;100803.03;4997098;28;20493;-55
2021/03/21 04:01:20;;;;;;;0.20;0.10;;;;;;;5.47;75.72;100803.00;5008299;28;20477;-56
2021/03/21 04:03:55;;;;;;;0.20;0.10;;;;;;;5.37;76.19;100807.41;5003050;28;20449;-56
2021/03/21 04:06:27;;;;;;;0.20;0.10;;;;;;;5.35;76.85;100812.69;4999417;28;20449;-56
2021/03/21 04:09:02;;;;;;;0.20;0.10;;;;;;;5.39;77.80;100810.91;5005087;28;20484;-55
2021/03/21 04:11:45;;;;;;;0.20;0.10;;;;;;;5.39;77.19;100813.56;4997554;28;20469;-55
2021/03/21 04:14:24;;;;;;;0.20;0.10;;;;;;;5.29;78.70;100819.69;5008235;28;20448;-56
2021/03/21 04:17:02;;;;;;;0.20;0.10;;;;;;;5.18;79.29;100814.41;5006951;28;20448;-55
2021/03/21 04:19:35;;;;;;;0.30;0.13;;;;;;;5.21;79.89;100805.63;5006125;28;20502;-55
2021/03/21 04:22:07;;;;;;;0.20;0.10;;;;;;;5.21;79.99;100787.19;5011917;28;20531;-55
2021/03/21 04:24:39;;;;;;;0.20;0.10;;;;;;;5.39;79.85;100796.88;5008428;28;20489;-55
2021/03/21 04:27:16;;;;;;;0.20;0.10;;;;;;;5.14;79.88;100799.47;4999079;28;20457;-55
2021/03/21 04:29:56;;;;;;;0.20;0.10;;;;;;;5.26;79.82;100796.84;5003488;28;20492;-55
2021/03/21 04:32:34;;;;;;;0.20;0.20;;;;;;;5.22;80.21;100799.50;4998084;28;20441;-56
2021/03/21 04:35:10;;;;;;;0.20;0.10;;;;;;;5.29;80.74;100798.59;5007182;28;20444;-56
2021/03/21 04:37:38;;;;;;;0.20;0.10;;;;;;;5.12;81.09;100792.44;5012941;28;20491;-55
2021/03/21 04:40:08;;;;;;;0.20;0.13;;;;;;;5.08;81.52;100788.94;5001241;28;20986;-55
2021/03/21 04:43:10;;;;;;;0.20;0.10;;;;;;;5.16;81.50;100799.47;4994996;28;20531;-56
2021/03/21 04:45:47;;;;;;;0.20;0.10;;;;;;;5.11;83.38;100793.31;4988749;28;20464;-55
2021/03/21 04:48:17;;;;;;;0.63;0.63;;;;;;;5.09;83.71;100792.44;5013992;28;20445;-56
2021/03/21 04:50:43;;;;;;;0.37;0.37;;;;;;;5.08;84.59;100793.31;4994540;28;20497;-56
2021/03/21 04:53:41;;;;;;;0.20;0.10;;;;;;;5.10;83.61;100795.06;5007643;28;20467;-56
2021/03/21 04:56:20;;;;;;;0.20;0.20;;;;;;;5.08;85.08;100788.94;4995121;28;20452;-56
2021/03/21 04:58:52;;;;;;;0.20;0.10;;;;;;;5.13;84.44;100796.84;5001303;28;20929;-56
2021/03/21 05:01:34;;;;;;;0.20;0.10;;;;;;;5.17;84.67;100795.94;5011654;28;20487;-55
2021/03/21 05:04:06;;;;;;;0.30;0.17;;;;;;;5.18;84.63;100793.31;4994758;28;20477;-55
2021/03/21 05:06:42;;;;;;;0.20;0.20;;;;;;;5.15;85.38;100790.69;5007330;28;20442;-55
2021/03/21 05:09:16;;;;;;;0.20;0.10;;;;;;;5.19;85.22;100791.56;4994480;28;20496;-55
2021/03/21 05:11:49;;;;;;;0.30;0.30;;;;;;;5.13;86.44;100791.56;5007437;28;20889;-56
2021/03/21 05:14:30;;;;;;;0.20;0.10;;;;;;;5.19;86.76;100799.47;4994216;28;20449;-55
2021/03/21 05:17:19;;;;;;;0.20;0.20;;;;;;;5.31;87.29;100800.34;5006756;28;20483;-56
2021/03/21 05:20:05;;;;;;;0.20;0.10;;;;;;;5.21;86.73;100790.72;5007714;28;20440;-56
2021/03/21 05:22:49;;;;;;;0.20;0.13;;;;;;;5.18;87.23;100788.03;5004815;28;20997;-56
2021/03/21 05:25:26;;;;;;;0.20;0.20;;;;;;;5.12;89.20;100764.34;5004580;28;20453;-56
2021/03/21 05:28:05;;;;;;;0.30;0.20;;;;;;;5.13;89.78;100783.66;4998849;28;20452;-56
2021/03/21 05:30:34;;;;;;;0.20;0.20;;;;;;;5.08;89.58;100778.41;4999219;28;20493;-56
2021/03/21 05:33:02;;;;;;;0.20;0.10;;;;;;;5.04;89.59;100781.88;5002143;28;20456;-56
2021/03/21 05:35:32;;;;;;;0.20;0.10;;;;;;;5.05;90.15;100784.50;5011627;28;20455;-56
2021/03/21 05:38:37;;;;;;;0.20;0.10;;;;;;;5.01;90.14;100777.47;4993851;28;20507;-56
2021/03/21 05:41:35;;;;;;;0.20;0.10;;;;;;;5.11;90.05;100788.06;4999788;28;20507;-56
2021/03/21 05:44:01;;;;;;;0.20;0.10;;;;;;;5.14;90.18;100783.66;5012352;28;20483;-56
2021/03/21 05:47:06;;;;;;;1.37;1.13;;;;;;;5.21;89.28;100774.91;5013192;28;20448;-56
2021/03/21 05:49:39;;;;;;;2.63;0.67;;;;;;;5.19;89.12;100775.75;4993190;28;20481;-56
2021/03/21 05:52:14;;;;;;;0.30;0.10;;;;;;;5.13;89.23;100778.38;5006192;28;20453;-56
2021/03/21 05:55:11;;;;;;;0.20;0.10;;;;;;;5.19;89.47;100779.25;5006561;28;20495;-56
2021/03/21 05:57:49;;;;;;;0.20;0.10;;;;;;;5.20;88.62;100770.47;5002170;28;20456;-55
2021/03/21 06:00:19;;;;;;;0.20;0.20;;;;;;;5.32;89.52;100762.59;4994328;28;20576;-54
2021/03/21 06:03:04;;;;;;;0.20;0.10;;;;;;;5.58;89.06;100772.25;5004589;28;20453;-55
2021/03/21 06:05:49;;;;;;;0.40;0.40;;;;;;;5.80;86.56;100773.13;5001341;28;21062;-55
2021/03/21 06:08:18;;;;;;;0.20;0.10;;;;;;;5.67;88.16;100776.66;4994773;28;20453;-56
2021/03/21 06:11:21;;;;;;;0.20;0.10;;;;;;;5.50;89.33;100771.41;5004517;28;20493;-54
2021/03/21 06:14:25;;;;;;;0.23;0.10;;;;;;;5.86;88.38;100773.97;5002748;28;20444;-53
2021/03/21 06:17:12;;;;;;;0.70;0.70;;;;;;;5.58;89.73;100765.22;5005912;28;20456;-54
2021/03/21 06:20:07;;;;;;;0.20;0.10;;;;;;;5.56;90.65;100772.25;5005639;28;20439;-54
2021/03/21 06:22:52;;;;;;;0.20;0.10;;;;;;;5.45;91.73;100762.59;5001986;28;20449;-53
2021/03/21 06:25:27;;;;;;;0.20;0.10;;;;;;;5.48;92.36;100760.84;5004190;28;20449;-54
2021/03/21 06:28:22;;;;;;;0.20;0.10;;;;;;;5.44;93.15;100753.81;5001122;28;20479;-53
2021/03/21 06:31:15;;;;;;;0.20;0.10;;;;;;;5.45;92.31;100752.91;4997107;28;20496;-54
2021/03/21 06:34:03;;;;;;;0.30;0.10;;;;;;;5.71;91.04;100745.00;5007641;28;20445;-54
2021/03/21 06:36:46;;;;;;;0.20;0.10;;;;;;;5.54;91.39;100739.75;4994781;28;20449;-55
2021/03/21 06:39:33;;;;;;;0.20;0.20;;;;;;;5.59;91.54;100730.06;5007825;28;20445;-55
2021/03/21 06:42:05;;;;;;;0.20;0.10;;;;;;;5.86;92.37;100734.41;4996351;28;20564;-53
2021/03/21 06:44:40;;;;;;;0.20;0.10;;;;;;;6.15;90.50;100750.19;5005272;28;20445;-53
2021/03/21 06:47:21;;;;;;;0.43;0.43;;;;;;;5.79;91.76;100758.19;5008415;28;20441;-53
2021/03/21 06:49:54;;;;;;;0.20;0.10;;;;;;;5.90;91.58;100764.34;5012352;28;20484;-53
2021/03/21 06:52:47;;;;;;;2.43;2.40;;;;;;;5.76;91.42;100753.78;4994241;28;20461;-53
2021/03/21 06:55:38;;;;;;;0.20;0.10;;;;;;;5.86;91.97;100752.00;5006997;28;20478;-52
2021/03/21 06:58:22;;;;;;;0.20;0.20;;;;;;;5.65;92.54;100732.69;4997299;28;20525;-56
2021/03/21 07:00:56;;;;;;;0.20;0.13;;;;;;;5.65;93.53;100724.78;5007733;28;20535;-55
2021/03/21 07:03:31;;;;;;;0.20;0.20;;;;;;;5.68;93.63;100725.66;5000583;28;20448;-55
2021/03/21 07:06:35;;;;;;;0.30;0.30;;;;;;;5.81;93.37;100723.00;5005269;28;20462;-56
2021/03/21 07:09:26;;;;;;;0.20;0.10;;;;;;;5.92;93.71;100730.94;5006635;28;20453;-54
2021/03/21 07:12:29;;;;;;;0.30;0.10;;;;;;;5.79;93.38;100716.84;5003380;28;20476;-55
2021/03/21 07:15:20;;;;;;;0.20;0.10;;;;;;;5.84;94.85;100711.56;4998228;28;20453;-53
2021/03/21 07:18:08;;;;;;;0.20;0.10;;;;;;;5.86;93.83;100715.06;5011034;28;20461;-54
2021/03/21 07:20:59;;;;;;;0.20;0.10;;;;;;;5.83;94.34;100712.44;5022938;28;20972;-53
2021/03/21 07:23:47;;;;;;;1.23;0.77;;;;;;;5.85;94.21;100706.28;4997503;28;20534;-53
2021/03/21 07:26:27;;;;;;;0.20;0.10;;;;;;;5.82;94.37;100714.19;5010339;28;20516;-53
2021/03/21 07:29:21;;;;;;;0.20;0.10;;;;;;;5.84;94.69;100720.34;4997848;28;20922;-54
2021/03/21 07:32:07;;;;;;;0.20;0.10;;;;;;;5.97;93.88;100731.78;5009333;28;20531;-53
2021/03/21 07:35:01;;;;;;;0.20;0.10;;;;;;;5.83;95.24;100723.00;5005694;28;20472;-53
2021/03/21 07:37:50;;;;;;;0.20;0.10;;;;;;;6.02;94.15;100721.19;4998872;28;20973;-54
2021/03/21 07:40:17;;;;;;;0.20;0.10;;;;;;;5.98;94.97;100730.03;5010568;28;20468;-53
2021/03/21 07:43:08;;;;;;;0.30;0.17;;;;;;;6.13;93.78;100722.94;4997015;28;20450;-54
2021/03/21 07:45:55;;;;;;;0.20;0.10;;;;;;;6.27;93.50;100733.44;5011808;28;20876;-54
2021/03/21 07:48:37;;;;;;;0.20;0.10;;;;;;;6.20;93.96;100723.78;5015441;28;20811;-54
2021/03/21 07:51:08;;;;;;;0.20;0.13;;;;;;;6.28;93.12;100726.38;4996965;28;20532;-53
2021/03/21 07:53:57;;;;;;;0.63;0.63;;;;;;;6.36;93.55;100719.31;5009289;28;20531;-54
2021/03/21 07:56:26;;;;;;;0.30;0.10;;;;;;;6.36;93.63;100716.69;4984714;28;20939;-54
2021/03/21 07:59:06;;;;;;;0.30;0.10;;;;;;;6.47;94.68;100709.59;5017160;28;20823;-54
2021/03/21 08:01:33;;;;;;;0.20;0.10;;;;;;;6.55;93.93;100718.34;4999347;28;20528;-54
2021/03/21 08:04:15;;;;;;;0.20;0.10;;;;;;;6.60;93.39;100707.78;5006217;28;20464;-54
2021/03/21 08:06:45;;;;;;;0.20;0.10;;;;;;;6.54;93.49;100708.66;4997195;28;20963;-55
2021/03/21 08:09:19;;;;;;;0.20;0.17;;;;;;;6.78;93.42;100711.16;5054597;22;20499;-54
2021/03/21 08:11:53;;;;;;;0.20;0.10;;;;;;;6.91;92.26;100714.59;4974026;28;20542;-54
2021/03/21 08:14:27;;;;;;;0.27;0.10;;;;;;;6.92;91.98;100711.06;4961935;28;20457;-54
2021/03/21 08:16:57;;;;;;;0.30;0.10;;;;;;;6.96;92.23;100719.84;4975084;28;20450;-55
2021/03/21 08:19:28;;;;;;;0.30;0.20;;;;;;;7.12;91.68;100709.16;4963730;28;20470;-55
2021/03/21 08:21:56;;;;;;;0.30;0.20;;;;;;;7.04;92.04;100715.41;4974926;28;20474;-54
2021/03/21 08:24:38;;;;;;;0.30;0.20;;;;;;;7.29;91.80;100719.63;4977313;28;20459;-55
2021/03/21 08:27:19;;;;;;;0.30;0.10;;;;;;;7.03;91.12;100703.09;4972068;28;20521;-54
2021/03/21 08:30:07;;;;;;;0.30;0.10;;;;;;;7.03;91.00;100708.38;4963692;28;20490;-55
2021/03/21 08:32:48;;;;;;;0.30;0.20;;;;;;;6.98;91.46;100705.72;4961707;28;21006;-54
2021/03/21 08:35:23;;;;;;;0.30;0.20;;;;;;;7.04;91.12;100711.00;4973488;28;20489;-54
2021/03/21 08:37:54;;;;;;;0.30;0.10;;;;;;;7.13;91.12;100712.69;4967024;28;20451;-54
2021/03/21 08:40:37;;;;;;;0.30;0.20;;;;;;;7.03;90.28;100701.31;4970081;28;20489;-55
2021/03/21 08:43:24;;;;;;;0.27;0.10;;;;;;;7.07;91.55;100704.81;4974940;28;20454;-54
2021/03/21 08:45:56;;;;;;;0.30;0.10;;;;;;;7.24;92.29;100700.25;4962539;28;20451;-55
2021/03/21 08:48:27;;;;;;;0.30;0.20;;;;;;;7.27;91.47;100707.31;4977699;28;20450;-54
2021/03/21 08:51:17;;;;;;;0.30;0.20;;;;;;;7.08;92.25;100714.47;4965491;28;20499;-55
2021/03/21 08:53:58;;;;;;;0.30;0.20;;;;;;;7.37;92.30;100707.19;4974097;28;20461;-54
2021/03/21 08:56:35;;;;;;;0.30;0.20;;;;;;;7.30;91.70;100710.78;4973964;28;20461;-55
2021/03/21 08:59:24;;;;;;;0.30;0.20;;;;;;;7.09;94.11;100705.66;4963700;28;20442;-54
2021/03/21 09:02:13;;;;;;;0.27;0.20;;;;;;;7.43;93.41;100709.78;4974060;28;20466;-55
2021/03/21 09:04:44;;;;;;;0.30;0.30;;;;;;;7.23;94.92;100705.56;4963417;28;20470;-54
2021/03/21 09:07:21;;;;;;;0.30;0.20;;;;;;;7.22;96.25;100696.75;4974095;28;20447;-55
2021/03/21 09:10:07;;;;;;;0.30;0.20;;;;;;;7.33;96.60;100700.19;4977824;28;20530;-54
2021/03/21 09:12:37;;;;;;;0.30;0.20;;;;;;;7.13;95.92;100694.19;4974477;28;20463;-55
2021/03/21 09:15:27;;;;;;;0.30;0.20;;;;;;;7.22;96.01;100701.16;4961989;28;20478;-55
2021/03/21 09:18:15;;;;;;;0.30;0.10;;;;;;;7.13;95.96;100710.06;4967492;28;20914;-55
2021/03/21 09:21:18;;;;;;;0.30;0.20;;;;;;;7.02;97.39;100712.78;4967923;28;20501;-55
2021/03/21 09:23:49;;;;;;;0.30;0.10;;;;;;;6.99;98.62;100702.22;4962365;28;20521;-54
2021/03/21 09:26:15;;;;;;;0.30;0.20;;;;;;;7.27;99.00;100700.25;4973358;28;20465;-55
2021/03/21 09:28:52;;;;;;;0.30;0.20;;;;;;;7.22;98.66;100702.03;4962526;28;20815;-55
2021/03/21 09:31:19;;;;;;;0.30;0.10;;;;;;;7.22;98.41;100696.75;4965433;28;20502;-55
2021/03/21 09:34:25;;;;;;;0.30;0.20;;;;;;;7.31;99.15;100701.09;4960860;28;20962;-55
2021/03/21 09:36:58;;;;;;;0.30;0.20;;;;;;;7.36;98.22;100697.50;4972733;28;20948;-54
2021/03/21 09:39:30;;;;;;;0.30;0.10;;;;;;;7.15;98.68;100695.06;4961692;28;20458;-55
2021/03/21 09:41:57;;;;;;;0.90;0.90;;;;;;;7.27;98.29;100702.88;4960703;28;20845;-55
2021/03/21 09:44:36;;;;;;;0.93;0.93;;;;;;;7.15;97.95;100708.28;4973776;28;20940;-54
2021/03/21 09:47:33;;;;;;;0.30;0.30;;;;;;;7.12;100.00;100697.69;4971631;28;20834;-55
2021/03/21 09:50:11;;;;;;;0.30;0.20;;;;;;;7.19;99.25;100690.63;4973189;28;21019;-55
2021/03/21 09:52:56;;;;;;;0.30;0.20;;;;;;;7.27;99.95;100699.38;4963001;28;20508;-55
2021/03/21 09:55:34;;;;;;;0.30;0.10;;;;;;;7.12;99.17;100687.13;4960620;28;20458;-54
2021/03/21 09:58:09;;;;;;;0.30;0.20;;;;;;;7.07;99.31;100678.38;4974379;28;20450;-54
2021/03/21 10:00:39;;;;;;;0.30;0.10;;;;;;;7.14;99.41;100674.81;4961984;28;20948;-55
2021/03/21 10:03:32;;;;;;;0.30;0.10;;;;;;;7.30;100.00;100680.84;4972158;28;20828;-55
2021/03/21 10:06:22;;;;;;;0.30;0.20;;;;;;;7.74;98.70;100669.81;4964488;28;20548;-55
2021/03/21 10:09:07;;;;;;;0.30;0.20;;;;;;;7.69;97.29;100671.63;4973591;28;20517;-55
2021/03/21 10:11:38;;;;;;;0.33;0.30;;;;;;;7.70;96.91;100666.31;4967895;28;20467;-55
2021/03/21 10:14:22;;;;;;;0.30;0.17;;;;;;;7.60;96.05;100664.66;4965102;28;20446;-55
2021/03/21 10:16:50;;;;;;;0.30;0.20;;;;;;;7.73;96.63;100660.13;4966011;28;20483;-54
2021/03/21 10:19:54;;;;;;;0.30;0.20;;;;;;;7.67;97.02;100668.97;4961707;28;20510;-55
2021/03/21 10:22:21;;;;;;;0.30;0.20;;;;;;;7.72;97.39;100659.25;4972453;28;20455;-55
2021/03/21 10:24:50;;;;;;;0.30;0.20;;;;;;;7.72;97.34;100655.72;4961225;28;20457;-54
2021/03/21 10:27:23;;;;;;;0.30;0.20;;;;;;;7.66;96.36;100654.00;4972275;28;20458;-55
2021/03/21 10:30:19;;;;;;;0.30;0.20;;;;;;;7.72;96.15;100655.72;4963254;28;20497;-54
2021/03/21 10:32:48;;;;;;;0.30;0.20;;;;;;;7.97;96.06;100651.91;4976480;28;20454;-54
2021/03/21 10:35:21;;;;;;;0.30;0.20;;;;;;;7.77;95.29;100651.22;4969340;28;20534;-55
2021/03/21 10:37:57;;;;;;;0.30;0.10;;;;;;;7.85;94.26;100645.88;4981232;28;20442;-55
2021/03/21 10:40:23;;;;;;;0.33;0.27;;;;;;;7.96;90.97;100644.84;4979048;28;20543;-55
2021/03/21 10:43:12;;;;;;;0.30;0.20;;;;;;;8.23;88.90;100651.56;4970134;28;20501;-55
2021/03/21 10:45:38;;;;;;;0.30;0.20;;;;;;;8.09;90.02;100657.94;4980599;28;20877;-55
2021/03/21 10:48:31;;;;;;;0.30;0.20;;;;;;;8.26;87.26;100658.59;4977159;28;20458;-55
2021/03/21 10:51:03;;;;;;;0.30;0.10;;;;;;;8.14;87.07;100664.91;4966293;28;20987;-54
2021/03/21 10:53:48;;;;;;;0.30;0.20;;;;;;;8.14;86.91;100679.94;4963636;28;20524;-54
2021/03/21 10:56:21;;;;;;;0.30;0.20;;;;;;;8.19;86.08;100681.59;4976630;28;20462;-55
2021/03/21 10:59:05;;;;;;;0.27;0.10;;;;;;;8.17;86.12;100683.41;4964116;28;20458;-54
2021/03/21 11:01:35;;;;;;;0.30;0.20;;;;;;;8.18;86.45;100678.97;4963599;28;20470;-55
2021/03/21 11:04:24;;;;;;;0.30;0.20;;;;;;;8.29;86.89;100682.38;4976501;28;20944;-55
2021/03/21 11:06:57;;;;;;;0.30;0.20;;;;;;;8.23;87.74;100687.78;4970306;28;20462;-54
2021/03/21 11:09:32;;;;;;;0.30;0.20;;;;;;;8.15;88.20;100674.59;4970785;28;20466;-55
2021/03/21 11:12:00;;;;;;;0.30;0.20;;;;;;;8.42;87.59;100677.84;4976440;28;20476;-55
2021/03/21 11:14:29;;;;;;;0.30;0.17;;;;;;;8.42;87.81;100664.59;4964395;28;20459;-55
2021/03/21 11:17:10;;;;;;;0.30;0.10;;;;;;;8.50;87.45;100673.31;4976652;28;20528;-55
2021/03/21 11:19:47;;;;;;;0.30;0.10;;;;;;;8.59;87.18;100666.09;4963452;28;20757;-55
2021/03/21 11:22:29;;;;;;;0.30;0.10;;;;;;;8.59;86.34;100646.66;4976276;28;20462;-54
2021/03/21 11:24:56;;;;;;;0.60;0.60;;;;;;;8.77;84.25;100641.13;4965160;28;20887;-54
2021/03/21 11:27:31;;;;;;;0.30;0.20;;;;;;;8.81;84.05;100644.59;4972891;28;20509;-55
2021/03/21 11:30:29;;;;;;;0.30;0.20;;;;;;;8.80;84.35;100640.19;4967544;28;20544;-55
2021/03/21 11:32:58;;;;;;;0.30;0.20;;;;;;;8.91;84.01;100635.59;4975999;28;20462;-55
2021/03/21 11:35:42;;;;;;;0.30;0.20;;;;;;;9.02;85.58;100630.09;4976044;28;20447;-55
2021/03/21 11:38:41;;;;;;;0.30;0.20;;;;;;;9.05;83.45;100635.38;4966861;28;20451;-55
2021/03/21 11:41:21;;;;;;;0.30;0.10;;;;;;;9.14;83.43;100636.06;4952530;28;20489;-55
2021/03/21 11:43:47;;;;;;;0.30;0.30;;;;;;;9.32;83.27;100636.63;4962727;28;20446;-55
2021/03/21 11:46:26;;;;;;;0.30;0.20;;;;;;;9.41;82.10;100649.75;4975788;28;20454;-55
2021/03/21 11:48:55;;;;;;;0.30;0.20;;;;;;;9.33;81.46;100646.38;4970098;28;20443;-55
2021/03/21 11:51:21;;;;;;;0.30;0.20;;;;;;;9.38;82.89;100668.38;4967733;28;20502;-55
2021/03/21 11:53:48;;;;;;;0.30;0.20;;;;;;;9.06;83.44;100674.22;4974117;28;20829;-55
2021/03/21 11:56:23;;;;;;;0.30;0.20;;;;;;;8.88;83.88;100689.50;4963661;28;20952;-55
2021/03/21 11:59:11;;;;;;;0.30;0.20;;;;;;;8.68;85.11;100691.59;4963049;28;20861;-55
2021/03/21 12:01:42;;;;;;;0.30;0.20;;;;;;;8.88;84.43;100668.31;4963127;28;20466;-56
2021/03/21 12:04:11;;;;;;;0.30;0.10;;;;;;;8.88;84.61;100668.31;4975373;28;20482;-56
2021/03/21 12:06:45;;;;;;;0.30;0.20;;;;;;;8.81;83.22;100652.53;4970993;28;21028;-56
2021/03/21 12:09:12;;;;;;;0.30;0.20;;;;;;;9.01;84.08;100653.06;4967813;28;20454;-56
2021/03/21 12:11:43;;;;;;;0.30;0.20;;;;;;;9.20;82.76;100645.72;4975029;28;20505;-56
2021/03/21 12:14:30;;;;;;;0.30;0.20;;;;;;;9.46;81.47;100639.94;4962546;28;21003;-56
2021/03/21 12:17:24;;;;;;;0.30;0.20;;;;;;;9.53;79.91;100632.72;4968660;28;20454;-56
2021/03/21 12:19:53;;;;;;;0.30;0.20;;;;;;;9.47;79.16;100644.34;4961597;28;20442;-56
2021/03/21 12:22:29;;;;;;;0.30;0.10;;;;;;;9.39;80.18;100639.16;4974698;28;20455;-56
2021/03/21 12:24:58;;;;;;;0.30;0.20;;;;;;;9.28;80.35;100634.94;4964265;28;20512;-56